sensor_id;sensor_type;location;lat;lon;timestamp;P1;durP1;ratioP1;P2;durP2;ratioP2
11034;SDS011;5571;48.110;-1.706;2022-12-13T00:00:36;23.07;;;13.77;;
11034;SDS011;5571;48.110;-1.706;2022-12-13T00:03:02;21.50;;;13.73;;
11034;SDS011;5571;48.110;-1.706;2022-12-13T00:05:27;22.07;;;13.03;;
11034;SDS011;5571;48.110;-1.706;2022-12-13T00:07:53;22.43;;;13.43;;
11034;SDS011;5571;48.110;-1.706;2022-12-13T00:10:19;23.13;;;14.07;;
11034;SDS011;5571;48.110;-1.706;2022-12-13T00:12:44;22.63;;;14.07;;
11034;SDS011;5571;48.110;-1.706;2022-12-13T00:15:10;21.07;;;13.10;;
11034;SDS011;5571;48.110;-1.706;2022-12-13T00:17:36;22.67;;;13.67;;
11034;SDS011;5571;48.110;-1.706;2022-12-13T00:20:01;24.60;;;14.47;;
11034;SDS011;5571;48.110;-1.706;2022-12-13T00:22:28;22.73;;;13.73;;
11034;SDS011;5571;48.110;-1.706;2022-12-13T00:24:54;24.70;;;14.43;;
11034;SDS011;5571;48.110;-1.706;2022-12-13T00:27:20;22.50;;;13.97;;
11034;SDS011;5571;48.110;-1.706;2022-12-13T00:29:47;23.00;;;14.50;;
11034;SDS011;5571;48.110;-1.706;2022-12-13T00:32:12;26.03;;;14.77;;
11034;SDS011;5571;48.110;-1.706;2022-12-13T00:34:38;24.37;;;14.43;;
11034;SDS011;5571;48.110;-1.706;2022-12-13T00:37:04;22.70;;;13.77;;
11034;SDS011;5571;48.110;-1.706;2022-12-13T00:39:30;23.17;;;13.90;;
11034;SDS011;5571;48.110;-1.706;2022-12-13T00:41:55;27.60;;;14.83;;
11034;SDS011;5571;48.110;-1.706;2022-12-13T00:44:21;23.93;;;14.30;;
11034;SDS011;5571;48.110;-1.706;2022-12-13T00:46:47;24.73;;;14.17;;
11034;SDS011;5571;48.110;-1.706;2022-12-13T00:49:15;26.80;;;15.90;;
11034;SDS011;5571;48.110;-1.706;2022-12-13T00:51:41;26.47;;;15.23;;
11034;SDS011;5571;48.110;-1.706;2022-12-13T00:54:07;22.17;;;14.27;;
11034;SDS011;5571;48.110;-1.706;2022-12-13T00:56:34;24.43;;;15.33;;
11034;SDS011;5571;48.110;-1.706;2022-12-13T00:59:01;27.23;;;15.23;;
11034;SDS011;5571;48.110;-1.706;2022-12-13T01:01:29;22.33;;;14.07;;
11034;SDS011;5571;48.110;-1.706;2022-12-13T01:03:58;25.53;;;15.27;;
11034;SDS011;5571;48.110;-1.706;2022-12-13T01:06:30;27.90;;;16.43;;
11034;SDS011;5571;48.110;-1.706;2022-12-13T01:09:00;27.20;;;15.90;;
11034;SDS011;5571;48.110;-1.706;2022-12-13T01:11:27;24.90;;;14.47;;
11034;SDS011;5571;48.110;-1.706;2022-12-13T01:13:52;26.73;;;16.27;;
11034;SDS011;5571;48.110;-1.706;2022-12-13T01:16:18;28.53;;;16.00;;
11034;SDS011;5571;48.110;-1.706;2022-12-13T01:18:44;29.27;;;16.10;;
11034;SDS011;5571;48.110;-1.706;2022-12-13T01:21:11;27.37;;;15.50;;
11034;SDS011;5571;48.110;-1.706;2022-12-13T01:23:39;27.47;;;16.13;;
11034;SDS011;5571;48.110;-1.706;2022-12-13T01:26:07;27.97;;;16.00;;
11034;SDS011;5571;48.110;-1.706;2022-12-13T01:28:37;27.67;;;16.77;;
11034;SDS011;5571;48.110;-1.706;2022-12-13T01:31:04;27.60;;;15.87;;
11034;SDS011;5571;48.110;-1.706;2022-12-13T01:33:32;27.53;;;16.30;;
11034;SDS011;5571;48.110;-1.706;2022-12-13T01:36:02;28.33;;;16.20;;
11034;SDS011;5571;48.110;-1.706;2022-12-13T01:38:29;28.23;;;16.27;;
11034;SDS011;5571;48.110;-1.706;2022-12-13T01:40:55;28.97;;;16.97;;
11034;SDS011;5571;48.110;-1.706;2022-12-13T01:43:24;27.20;;;15.80;;
11034;SDS011;5571;48.110;-1.706;2022-12-13T01:45:53;28.83;;;17.13;;
11034;SDS011;5571;48.110;-1.706;2022-12-13T01:48:20;28.33;;;17.37;;
11034;SDS011;5571;48.110;-1.706;2022-12-13T01:50:54;31.13;;;18.40;;
11034;SDS011;5571;48.110;-1.706;2022-12-13T01:53:25;30.53;;;18.43;;
11034;SDS011;5571;48.110;-1.706;2022-12-13T01:55:54;33.90;;;19.47;;
11034;SDS011;5571;48.110;-1.706;2022-12-13T01:58:23;36.00;;;18.60;;
11034;SDS011;5571;48.110;-1.706;2022-12-13T02:00:49;35.37;;;20.70;;
11034;SDS011;5571;48.110;-1.706;2022-12-13T02:03:15;33.93;;;19.40;;
11034;SDS011;5571;48.110;-1.706;2022-12-13T02:05:49;35.33;;;18.97;;
11034;SDS011;5571;48.110;-1.706;2022-12-13T02:08:29;34.43;;;19.97;;
11034;SDS011;5571;48.110;-1.706;2022-12-13T02:10:55;42.43;;;22.90;;
11034;SDS011;5571;48.110;-1.706;2022-12-13T02:13:22;36.73;;;21.17;;
11034;SDS011;5571;48.110;-1.706;2022-12-13T02:16:02;35.33;;;19.47;;
11034;SDS011;5571;48.110;-1.706;2022-12-13T02:22:03;43.17;;;25.57;;
11034;SDS011;5571;48.110;-1.706;2022-12-13T02:25:20;41.63;;;25.13;;
11034;SDS011;5571;48.110;-1.706;2022-12-13T02:30:45;29.47;;;17.07;;
11034;SDS011;5571;48.110;-1.706;2022-12-13T02:34:00;36.50;;;20.17;;
11034;SDS011;5571;48.110;-1.706;2022-12-13T02:39:13;32.03;;;18.00;;
11034;SDS011;5571;48.110;-1.706;2022-12-13T02:41:50;32.70;;;18.03;;
11034;SDS011;5571;48.110;-1.706;2022-12-13T02:44:19;29.30;;;17.63;;
11034;SDS011;5571;48.110;-1.706;2022-12-13T02:47:08;30.70;;;18.30;;
11034;SDS011;5571;48.110;-1.706;2022-12-13T02:49:39;30.83;;;17.77;;
11034;SDS011;5571;48.110;-1.706;2022-12-13T02:52:09;29.10;;;17.73;;
11034;SDS011;5571;48.110;-1.706;2022-12-13T02:54:36;29.83;;;18.00;;
11034;SDS011;5571;48.110;-1.706;2022-12-13T02:57:02;31.63;;;18.50;;
11034;SDS011;5571;48.110;-1.706;2022-12-13T02:59:33;28.93;;;17.40;;
11034;SDS011;5571;48.110;-1.706;2022-12-13T03:02:11;29.87;;;17.33;;
11034;SDS011;5571;48.110;-1.706;2022-12-13T03:07:42;29.60;;;16.97;;
11034;SDS011;5571;48.110;-1.706;2022-12-13T03:10:21;28.20;;;17.63;;
11034;SDS011;5571;48.110;-1.706;2022-12-13T03:12:58;32.43;;;17.73;;
11034;SDS011;5571;48.110;-1.706;2022-12-13T03:15:57;29.97;;;18.73;;
11034;SDS011;5571;48.110;-1.706;2022-12-13T03:18:27;30.77;;;17.87;;
11034;SDS011;5571;48.110;-1.706;2022-12-13T03:20:59;30.73;;;18.37;;
11034;SDS011;5571;48.110;-1.706;2022-12-13T03:23:28;29.83;;;17.53;;
11034;SDS011;5571;48.110;-1.706;2022-12-13T03:25:56;30.00;;;18.40;;
11034;SDS011;5571;48.110;-1.706;2022-12-13T03:28:26;32.30;;;17.90;;
11034;SDS011;5571;48.110;-1.706;2022-12-13T03:30:52;30.50;;;17.23;;
11034;SDS011;5571;48.110;-1.706;2022-12-13T03:33:18;33.33;;;18.73;;
11034;SDS011;5571;48.110;-1.706;2022-12-13T03:35:43;31.30;;;17.77;;
11034;SDS011;5571;48.110;-1.706;2022-12-13T03:38:10;27.53;;;17.40;;
11034;SDS011;5571;48.110;-1.706;2022-12-13T03:40:39;29.77;;;17.73;;
11034;SDS011;5571;48.110;-1.706;2022-12-13T03:43:05;31.93;;;17.47;;
11034;SDS011;5571;48.110;-1.706;2022-12-13T03:45:31;29.63;;;17.90;;
11034;SDS011;5571;48.110;-1.706;2022-12-13T03:47:56;32.93;;;18.60;;
11034;SDS011;5571;48.110;-1.706;2022-12-13T03:50:22;30.60;;;18.23;;
11034;SDS011;5571;48.110;-1.706;2022-12-13T03:52:47;32.87;;;18.87;;
11034;SDS011;5571;48.110;-1.706;2022-12-13T03:55:15;27.17;;;17.00;;
11034;SDS011;5571;48.110;-1.706;2022-12-13T03:57:42;29.67;;;17.77;;
11034;SDS011;5571;48.110;-1.706;2022-12-13T04:00:07;29.37;;;17.70;;
11034;SDS011;5571;48.110;-1.706;2022-12-13T04:02:33;28.13;;;17.43;;
11034;SDS011;5571;48.110;-1.706;2022-12-13T04:04:59;30.37;;;17.47;;
11034;SDS011;5571;48.110;-1.706;2022-12-13T04:07:25;29.13;;;17.57;;
11034;SDS011;5571;48.110;-1.706;2022-12-13T04:09:50;28.47;;;16.80;;
11034;SDS011;5571;48.110;-1.706;2022-12-13T04:12:16;28.47;;;17.77;;
11034;SDS011;5571;48.110;-1.706;2022-12-13T04:15:00;25.67;;;16.70;;
11034;SDS011;5571;48.110;-1.706;2022-12-13T04:17:26;30.90;;;18.17;;
11034;SDS011;5571;48.110;-1.706;2022-12-13T04:19:52;25.17;;;16.60;;
11034;SDS011;5571;48.110;-1.706;2022-12-13T04:22:17;28.57;;;16.57;;
11034;SDS011;5571;48.110;-1.706;2022-12-13T04:24:43;28.07;;;16.40;;
11034;SDS011;5571;48.110;-1.706;2022-12-13T04:27:08;29.93;;;17.77;;
11034;SDS011;5571;48.110;-1.706;2022-12-13T04:29:34;28.13;;;17.40;;
11034;SDS011;5571;48.110;-1.706;2022-12-13T04:31:59;28.37;;;17.07;;
11034;SDS011;5571;48.110;-1.706;2022-12-13T04:34:26;26.37;;;16.87;;
11034;SDS011;5571;48.110;-1.706;2022-12-13T04:36:51;26.53;;;15.80;;
11034;SDS011;5571;48.110;-1.706;2022-12-13T04:39:17;25.47;;;16.67;;
11034;SDS011;5571;48.110;-1.706;2022-12-13T04:41:42;30.03;;;18.13;;
11034;SDS011;5571;48.110;-1.706;2022-12-13T04:44:09;26.80;;;17.07;;
11034;SDS011;5571;48.110;-1.706;2022-12-13T04:46:35;25.27;;;16.77;;
11034;SDS011;5571;48.110;-1.706;2022-12-13T04:49:00;28.77;;;16.93;;
11034;SDS011;5571;48.110;-1.706;2022-12-13T04:51:26;33.70;;;17.27;;
11034;SDS011;5571;48.110;-1.706;2022-12-13T04:53:52;26.03;;;16.23;;
11034;SDS011;5571;48.110;-1.706;2022-12-13T04:56:17;29.27;;;17.30;;
11034;SDS011;5571;48.110;-1.706;2022-12-13T04:58:43;27.80;;;16.73;;
11034;SDS011;5571;48.110;-1.706;2022-12-13T05:01:09;27.93;;;17.73;;
11034;SDS011;5571;48.110;-1.706;2022-12-13T05:03:35;28.13;;;17.37;;
11034;SDS011;5571;48.110;-1.706;2022-12-13T05:06:05;27.67;;;17.60;;
11034;SDS011;5571;48.110;-1.706;2022-12-13T05:08:31;26.87;;;16.97;;
11034;SDS011;5571;48.110;-1.706;2022-12-13T05:10:57;27.60;;;16.97;;
11034;SDS011;5571;48.110;-1.706;2022-12-13T05:13:23;32.70;;;17.23;;
11034;SDS011;5571;48.110;-1.706;2022-12-13T05:15:59;29.80;;;17.93;;
11034;SDS011;5571;48.110;-1.706;2022-12-13T05:18:26;28.87;;;16.70;;
11034;SDS011;5571;48.110;-1.706;2022-12-13T05:20:52;28.23;;;17.03;;
11034;SDS011;5571;48.110;-1.706;2022-12-13T05:23:19;25.53;;;16.07;;
11034;SDS011;5571;48.110;-1.706;2022-12-13T05:25:46;27.07;;;17.37;;
11034;SDS011;5571;48.110;-1.706;2022-12-13T05:28:12;27.03;;;16.83;;
11034;SDS011;5571;48.110;-1.706;2022-12-13T05:30:41;26.83;;;17.20;;
11034;SDS011;5571;48.110;-1.706;2022-12-13T05:33:07;28.07;;;17.50;;
11034;SDS011;5571;48.110;-1.706;2022-12-13T05:35:33;27.20;;;17.47;;
11034;SDS011;5571;48.110;-1.706;2022-12-13T05:37:59;28.80;;;17.37;;
11034;SDS011;5571;48.110;-1.706;2022-12-13T05:40:26;30.00;;;17.77;;
11034;SDS011;5571;48.110;-1.706;2022-12-13T05:42:53;31.07;;;18.23;;
11034;SDS011;5571;48.110;-1.706;2022-12-13T05:45:19;28.10;;;17.23;;
11034;SDS011;5571;48.110;-1.706;2022-12-13T05:47:45;27.83;;;16.90;;
11034;SDS011;5571;48.110;-1.706;2022-12-13T05:50:12;28.57;;;18.37;;
11034;SDS011;5571;48.110;-1.706;2022-12-13T05:52:38;31.17;;;17.57;;
11034;SDS011;5571;48.110;-1.706;2022-12-13T05:55:04;32.80;;;17.23;;
11034;SDS011;5571;48.110;-1.706;2022-12-13T05:57:30;27.90;;;17.57;;
11034;SDS011;5571;48.110;-1.706;2022-12-13T05:59:56;27.20;;;17.23;;
11034;SDS011;5571;48.110;-1.706;2022-12-13T06:02:22;29.93;;;17.63;;
11034;SDS011;5571;48.110;-1.706;2022-12-13T06:04:48;25.40;;;16.77;;
11034;SDS011;5571;48.110;-1.706;2022-12-13T06:07:14;25.83;;;17.13;;
11034;SDS011;5571;48.110;-1.706;2022-12-13T06:09:39;27.80;;;16.87;;
11034;SDS011;5571;48.110;-1.706;2022-12-13T06:12:05;29.40;;;17.87;;
11034;SDS011;5571;48.110;-1.706;2022-12-13T06:14:31;29.33;;;16.80;;
11034;SDS011;5571;48.110;-1.706;2022-12-13T06:16:57;27.60;;;17.13;;
11034;SDS011;5571;48.110;-1.706;2022-12-13T06:19:22;27.80;;;17.23;;
11034;SDS011;5571;48.110;-1.706;2022-12-13T06:21:49;29.50;;;18.37;;
11034;SDS011;5571;48.110;-1.706;2022-12-13T06:24:17;31.20;;;18.57;;
11034;SDS011;5571;48.110;-1.706;2022-12-13T06:26:44;30.23;;;17.87;;
11034;SDS011;5571;48.110;-1.706;2022-12-13T06:29:11;27.87;;;16.90;;
11034;SDS011;5571;48.110;-1.706;2022-12-13T06:31:40;39.13;;;18.17;;
11034;SDS011;5571;48.110;-1.706;2022-12-13T06:34:06;29.07;;;17.87;;
11034;SDS011;5571;48.110;-1.706;2022-12-13T06:36:31;28.50;;;17.53;;
11034;SDS011;5571;48.110;-1.706;2022-12-13T06:39:00;27.60;;;17.40;;
11034;SDS011;5571;48.110;-1.706;2022-12-13T06:41:27;31.90;;;18.77;;
11034;SDS011;5571;48.110;-1.706;2022-12-13T06:43:53;31.90;;;17.67;;
11034;SDS011;5571;48.110;-1.706;2022-12-13T06:46:19;28.73;;;17.50;;
11034;SDS011;5571;48.110;-1.706;2022-12-13T06:48:44;26.67;;;17.00;;
11034;SDS011;5571;48.110;-1.706;2022-12-13T06:51:10;32.60;;;17.97;;
11034;SDS011;5571;48.110;-1.706;2022-12-13T06:53:37;27.77;;;17.27;;
11034;SDS011;5571;48.110;-1.706;2022-12-13T06:56:05;27.50;;;16.83;;
11034;SDS011;5571;48.110;-1.706;2022-12-13T06:58:32;30.87;;;17.10;;
11034;SDS011;5571;48.110;-1.706;2022-12-13T07:01:02;30.83;;;17.53;;
11034;SDS011;5571;48.110;-1.706;2022-12-13T07:03:36;31.07;;;17.93;;
11034;SDS011;5571;48.110;-1.706;2022-12-13T07:06:15;28.23;;;17.43;;
11034;SDS011;5571;48.110;-1.706;2022-12-13T07:08:43;29.27;;;18.17;;
11034;SDS011;5571;48.110;-1.706;2022-12-13T07:11:12;29.93;;;17.20;;
11034;SDS011;5571;48.110;-1.706;2022-12-13T07:13:40;27.00;;;17.07;;
11034;SDS011;5571;48.110;-1.706;2022-12-13T07:16:07;28.00;;;17.83;;
11034;SDS011;5571;48.110;-1.706;2022-12-13T07:18:32;30.00;;;17.33;;
11034;SDS011;5571;48.110;-1.706;2022-12-13T07:20:58;28.30;;;16.73;;
11034;SDS011;5571;48.110;-1.706;2022-12-13T07:23:24;30.67;;;17.23;;
11034;SDS011;5571;48.110;-1.706;2022-12-13T07:25:52;28.13;;;17.53;;
11034;SDS011;5571;48.110;-1.706;2022-12-13T07:28:19;32.33;;;17.70;;
11034;SDS011;5571;48.110;-1.706;2022-12-13T07:30:45;30.57;;;17.80;;
11034;SDS011;5571;48.110;-1.706;2022-12-13T07:33:12;30.90;;;17.57;;
11034;SDS011;5571;48.110;-1.706;2022-12-13T07:35:38;32.90;;;18.50;;
11034;SDS011;5571;48.110;-1.706;2022-12-13T07:38:05;28.50;;;17.83;;
11034;SDS011;5571;48.110;-1.706;2022-12-13T07:40:33;28.73;;;17.80;;
11034;SDS011;5571;48.110;-1.706;2022-12-13T07:42:59;31.00;;;17.20;;
11034;SDS011;5571;48.110;-1.706;2022-12-13T07:45:25;36.97;;;18.77;;
11034;SDS011;5571;48.110;-1.706;2022-12-13T07:47:51;29.77;;;17.30;;
11034;SDS011;5571;48.110;-1.706;2022-12-13T07:50:17;28.33;;;17.40;;
11034;SDS011;5571;48.110;-1.706;2022-12-13T07:52:45;31.07;;;17.83;;
11034;SDS011;5571;48.110;-1.706;2022-12-13T07:55:15;28.53;;;16.73;;
11034;SDS011;5571;48.110;-1.706;2022-12-13T07:57:42;29.90;;;17.57;;
11034;SDS011;5571;48.110;-1.706;2022-12-13T08:00:08;28.80;;;16.87;;
11034;SDS011;5571;48.110;-1.706;2022-12-13T08:02:35;27.40;;;17.23;;
11034;SDS011;5571;48.110;-1.706;2022-12-13T08:05:00;30.00;;;17.87;;
11034;SDS011;5571;48.110;-1.706;2022-12-13T08:07:26;33.90;;;19.43;;
11034;SDS011;5571;48.110;-1.706;2022-12-13T08:09:51;32.73;;;18.63;;
11034;SDS011;5571;48.110;-1.706;2022-12-13T08:12:19;31.10;;;17.70;;
11034;SDS011;5571;48.110;-1.706;2022-12-13T08:14:45;30.23;;;18.67;;
11034;SDS011;5571;48.110;-1.706;2022-12-13T08:17:11;30.53;;;18.30;;
11034;SDS011;5571;48.110;-1.706;2022-12-13T08:19:36;29.37;;;18.40;;
11034;SDS011;5571;48.110;-1.706;2022-12-13T08:22:02;30.93;;;17.67;;
11034;SDS011;5571;48.110;-1.706;2022-12-13T08:24:28;32.03;;;18.47;;
11034;SDS011;5571;48.110;-1.706;2022-12-13T08:26:56;28.17;;;17.47;;
11034;SDS011;5571;48.110;-1.706;2022-12-13T08:29:25;29.17;;;18.07;;
11034;SDS011;5571;48.110;-1.706;2022-12-13T08:31:50;29.27;;;17.67;;
11034;SDS011;5571;48.110;-1.706;2022-12-13T08:34:16;30.80;;;19.30;;
11034;SDS011;5571;48.110;-1.706;2022-12-13T08:36:42;30.40;;;17.77;;
11034;SDS011;5571;48.110;-1.706;2022-12-13T08:39:07;28.77;;;17.50;;
11034;SDS011;5571;48.110;-1.706;2022-12-13T08:41:33;29.77;;;17.23;;
11034;SDS011;5571;48.110;-1.706;2022-12-13T08:43:58;30.83;;;17.93;;
11034;SDS011;5571;48.110;-1.706;2022-12-13T08:46:24;31.03;;;17.27;;
11034;SDS011;5571;48.110;-1.706;2022-12-13T08:48:51;31.03;;;18.10;;
11034;SDS011;5571;48.110;-1.706;2022-12-13T08:51:18;29.23;;;18.10;;
11034;SDS011;5571;48.110;-1.706;2022-12-13T08:53:48;30.37;;;18.07;;
11034;SDS011;5571;48.110;-1.706;2022-12-13T08:56:14;33.40;;;17.53;;
11034;SDS011;5571;48.110;-1.706;2022-12-13T08:58:41;31.87;;;17.37;;
11034;SDS011;5571;48.110;-1.706;2022-12-13T09:01:07;32.90;;;18.67;;
11034;SDS011;5571;48.110;-1.706;2022-12-13T09:03:33;30.00;;;18.10;;
11034;SDS011;5571;48.110;-1.706;2022-12-13T09:06:09;29.40;;;16.97;;
11034;SDS011;5571;48.110;-1.706;2022-12-13T09:08:39;29.07;;;17.03;;
11034;SDS011;5571;48.110;-1.706;2022-12-13T09:11:05;32.50;;;17.50;;
11034;SDS011;5571;48.110;-1.706;2022-12-13T09:13:33;32.17;;;17.67;;
11034;SDS011;5571;48.110;-1.706;2022-12-13T09:16:09;34.70;;;17.13;;
11034;SDS011;5571;48.110;-1.706;2022-12-13T09:18:41;30.30;;;17.63;;
11034;SDS011;5571;48.110;-1.706;2022-12-13T09:21:08;31.67;;;17.77;;
11034;SDS011;5571;48.110;-1.706;2022-12-13T09:23:35;32.00;;;16.33;;
11034;SDS011;5571;48.110;-1.706;2022-12-13T09:26:01;27.13;;;16.90;;
11034;SDS011;5571;48.110;-1.706;2022-12-13T09:28:27;29.17;;;16.90;;
11034;SDS011;5571;48.110;-1.706;2022-12-13T09:30:54;29.53;;;16.97;;
11034;SDS011;5571;48.110;-1.706;2022-12-13T09:33:20;29.53;;;16.87;;
11034;SDS011;5571;48.110;-1.706;2022-12-13T09:35:46;27.63;;;17.10;;
11034;SDS011;5571;48.110;-1.706;2022-12-13T09:38:12;29.27;;;17.10;;
11034;SDS011;5571;48.110;-1.706;2022-12-13T09:40:37;27.17;;;16.67;;
11034;SDS011;5571;48.110;-1.706;2022-12-13T09:43:05;30.13;;;16.77;;
11034;SDS011;5571;48.110;-1.706;2022-12-13T09:45:31;28.97;;;17.27;;
11034;SDS011;5571;48.110;-1.706;2022-12-13T09:47:59;29.40;;;17.03;;
11034;SDS011;5571;48.110;-1.706;2022-12-13T09:50:29;34.80;;;17.60;;
11034;SDS011;5571;48.110;-1.706;2022-12-13T09:52:57;30.40;;;17.87;;
11034;SDS011;5571;48.110;-1.706;2022-12-13T09:55:26;30.77;;;16.40;;
11034;SDS011;5571;48.110;-1.706;2022-12-13T10:00:52;28.23;;;16.73;;
11034;SDS011;5571;48.110;-1.706;2022-12-13T10:03:20;25.80;;;16.60;;
11034;SDS011;5571;48.110;-1.706;2022-12-13T10:05:53;27.57;;;17.07;;
11034;SDS011;5571;48.110;-1.706;2022-12-13T10:08:23;29.97;;;16.83;;
11034;SDS011;5571;48.110;-1.706;2022-12-13T10:10:56;28.60;;;16.80;;
11034;SDS011;5571;48.110;-1.706;2022-12-13T10:16:03;28.37;;;16.60;;
11034;SDS011;5571;48.110;-1.706;2022-12-13T10:18:34;27.27;;;16.57;;
11034;SDS011;5571;48.110;-1.706;2022-12-13T10:21:02;27.23;;;15.97;;
11034;SDS011;5571;48.110;-1.706;2022-12-13T10:23:34;26.13;;;16.20;;
11034;SDS011;5571;48.110;-1.706;2022-12-13T10:25:59;24.90;;;16.33;;
11034;SDS011;5571;48.110;-1.706;2022-12-13T10:28:26;25.80;;;15.17;;
11034;SDS011;5571;48.110;-1.706;2022-12-13T10:30:55;23.97;;;14.93;;
11034;SDS011;5571;48.110;-1.706;2022-12-13T10:33:29;25.70;;;15.73;;
11034;SDS011;5571;48.110;-1.706;2022-12-13T10:36:04;22.93;;;14.90;;
11034;SDS011;5571;48.110;-1.706;2022-12-13T10:38:30;26.47;;;15.30;;
11034;SDS011;5571;48.110;-1.706;2022-12-13T10:40:59;24.93;;;15.53;;
11034;SDS011;5571;48.110;-1.706;2022-12-13T10:43:25;28.23;;;16.47;;
11034;SDS011;5571;48.110;-1.706;2022-12-13T10:53:45;28.60;;;15.23;;
11034;SDS011;5571;48.110;-1.706;2022-12-13T10:56:16;23.10;;;15.30;;
11034;SDS011;5571;48.110;-1.706;2022-12-13T10:58:44;23.53;;;14.73;;
11034;SDS011;5571;48.110;-1.706;2022-12-13T11:03:59;22.70;;;14.30;;
11034;SDS011;5571;48.110;-1.706;2022-12-13T11:06:27;28.63;;;15.70;;
11034;SDS011;5571;48.110;-1.706;2022-12-13T11:11:55;22.83;;;14.50;;
11034;SDS011;5571;48.110;-1.706;2022-12-13T11:14:32;22.97;;;14.37;;
11034;SDS011;5571;48.110;-1.706;2022-12-13T11:17:04;26.07;;;16.00;;
11034;SDS011;5571;48.110;-1.706;2022-12-13T11:19:44;22.57;;;14.73;;
11034;SDS011;5571;48.110;-1.706;2022-12-13T11:22:20;24.10;;;14.37;;
11034;SDS011;5571;48.110;-1.706;2022-12-13T11:25:04;22.67;;;14.30;;
11034;SDS011;5571;48.110;-1.706;2022-12-13T11:33:17;29.27;;;15.77;;
11034;SDS011;5571;48.110;-1.706;2022-12-13T11:36:17;22.00;;;14.13;;
11034;SDS011;5571;48.110;-1.706;2022-12-13T11:39:08;26.33;;;13.93;;
11034;SDS011;5571;48.110;-1.706;2022-12-13T11:47:22;24.60;;;13.93;;
11034;SDS011;5571;48.110;-1.706;2022-12-13T11:50:01;22.30;;;13.57;;
11034;SDS011;5571;48.110;-1.706;2022-12-13T11:52:40;19.77;;;12.87;;
11034;SDS011;5571;48.110;-1.706;2022-12-13T11:55:21;24.10;;;14.13;;
11034;SDS011;5571;48.110;-1.706;2022-12-13T12:00:31;24.63;;;13.50;;
11034;SDS011;5571;48.110;-1.706;2022-12-13T12:03:19;29.50;;;15.37;;
11034;SDS011;5571;48.110;-1.706;2022-12-13T12:05:50;28.40;;;15.80;;
11034;SDS011;5571;48.110;-1.706;2022-12-13T12:13:35;23.83;;;14.33;;
11034;SDS011;5571;48.110;-1.706;2022-12-13T12:18:56;26.80;;;14.57;;
11034;SDS011;5571;48.110;-1.706;2022-12-13T12:29:33;24.67;;;14.17;;
11034;SDS011;5571;48.110;-1.706;2022-12-13T12:32:10;26.70;;;14.13;;
11034;SDS011;5571;48.110;-1.706;2022-12-13T12:37:23;23.83;;;15.00;;
11034;SDS011;5571;48.110;-1.706;2022-12-13T12:40:04;24.50;;;14.50;;
11034;SDS011;5571;48.110;-1.706;2022-12-13T12:42:55;22.57;;;14.60;;
11034;SDS011;5571;48.110;-1.706;2022-12-13T12:48:30;23.77;;;15.57;;
11034;SDS011;5571;48.110;-1.706;2022-12-13T12:51:24;26.40;;;14.33;;
11034;SDS011;5571;48.110;-1.706;2022-12-13T12:54:24;26.33;;;16.73;;
11034;SDS011;5571;48.110;-1.706;2022-12-13T12:57:13;25.83;;;15.43;;
11034;SDS011;5571;48.110;-1.706;2022-12-13T13:02:31;22.70;;;15.40;;
11034;SDS011;5571;48.110;-1.706;2022-12-13T13:05:13;24.87;;;15.60;;
11034;SDS011;5571;48.110;-1.706;2022-12-13T13:07:53;24.73;;;14.20;;
11034;SDS011;5571;48.110;-1.706;2022-12-13T13:10:26;23.40;;;14.10;;
11034;SDS011;5571;48.110;-1.706;2022-12-13T13:12:52;22.37;;;13.97;;
11034;SDS011;5571;48.110;-1.706;2022-12-13T13:17:56;23.47;;;14.27;;
11034;SDS011;5571;48.110;-1.706;2022-12-13T13:20:23;21.77;;;14.07;;
11034;SDS011;5571;48.110;-1.706;2022-12-13T13:22:50;21.83;;;13.67;;
11034;SDS011;5571;48.110;-1.706;2022-12-13T13:25:20;22.43;;;14.07;;
11034;SDS011;5571;48.110;-1.706;2022-12-13T13:27:58;23.87;;;14.30;;
11034;SDS011;5571;48.110;-1.706;2022-12-13T13:30:26;22.30;;;14.47;;
11034;SDS011;5571;48.110;-1.706;2022-12-13T13:32:53;25.10;;;14.83;;
11034;SDS011;5571;48.110;-1.706;2022-12-13T13:37:55;22.83;;;13.93;;
11034;SDS011;5571;48.110;-1.706;2022-12-13T13:40:35;20.40;;;13.97;;
11034;SDS011;5571;48.110;-1.706;2022-12-13T13:54:05;22.70;;;14.30;;
11034;SDS011;5571;48.110;-1.706;2022-12-13T13:56:59;22.40;;;14.03;;
11034;SDS011;5571;48.110;-1.706;2022-12-13T14:00:08;21.30;;;14.03;;
11034;SDS011;5571;48.110;-1.706;2022-12-13T14:13:44;23.67;;;14.80;;
11034;SDS011;5571;48.110;-1.706;2022-12-13T14:25:16;21.70;;;13.37;;
11034;SDS011;5571;48.110;-1.706;2022-12-13T14:30:57;24.60;;;14.03;;
11034;SDS011;5571;48.110;-1.706;2022-12-13T14:33:23;22.03;;;14.80;;
11034;SDS011;5571;48.110;-1.706;2022-12-13T14:35:54;21.17;;;13.60;;
11034;SDS011;5571;48.110;-1.706;2022-12-13T14:38:23;21.03;;;13.50;;
11034;SDS011;5571;48.110;-1.706;2022-12-13T14:40:54;20.20;;;12.77;;
11034;SDS011;5571;48.110;-1.706;2022-12-13T14:43:29;22.00;;;14.10;;
11034;SDS011;5571;48.110;-1.706;2022-12-13T14:46:00;24.57;;;13.13;;
11034;SDS011;5571;48.110;-1.706;2022-12-13T14:48:49;20.37;;;12.87;;
11034;SDS011;5571;48.110;-1.706;2022-12-13T14:51:31;23.43;;;13.67;;
11034;SDS011;5571;48.110;-1.706;2022-12-13T14:54:00;23.70;;;13.83;;
11034;SDS011;5571;48.110;-1.706;2022-12-13T14:56:28;19.13;;;13.33;;
11034;SDS011;5571;48.110;-1.706;2022-12-13T14:59:00;20.77;;;13.13;;
11034;SDS011;5571;48.110;-1.706;2022-12-13T15:04:13;18.80;;;13.37;;
11034;SDS011;5571;48.110;-1.706;2022-12-13T15:06:41;18.27;;;13.07;;
11034;SDS011;5571;48.110;-1.706;2022-12-13T15:09:11;22.27;;;12.83;;
11034;SDS011;5571;48.110;-1.706;2022-12-13T15:11:37;17.83;;;12.97;;
11034;SDS011;5571;48.110;-1.706;2022-12-13T15:14:04;20.37;;;13.83;;
11034;SDS011;5571;48.110;-1.706;2022-12-13T15:16:30;17.87;;;11.77;;
11034;SDS011;5571;48.110;-1.706;2022-12-13T15:22:01;23.90;;;13.23;;
11034;SDS011;5571;48.110;-1.706;2022-12-13T15:24:37;19.83;;;13.67;;
11034;SDS011;5571;48.110;-1.706;2022-12-13T15:27:11;19.77;;;14.13;;
11034;SDS011;5571;48.110;-1.706;2022-12-13T15:29:38;18.57;;;12.97;;
11034;SDS011;5571;48.110;-1.706;2022-12-13T15:32:09;21.33;;;13.23;;
11034;SDS011;5571;48.110;-1.706;2022-12-13T15:34:40;18.17;;;12.67;;
11034;SDS011;5571;48.110;-1.706;2022-12-13T15:39:41;20.67;;;13.37;;
11034;SDS011;5571;48.110;-1.706;2022-12-13T15:42:14;22.70;;;13.53;;
11034;SDS011;5571;48.110;-1.706;2022-12-13T15:44:51;20.67;;;12.73;;
11034;SDS011;5571;48.110;-1.706;2022-12-13T15:47:20;21.00;;;13.37;;
11034;SDS011;5571;48.110;-1.706;2022-12-13T15:49:52;21.17;;;13.70;;
11034;SDS011;5571;48.110;-1.706;2022-12-13T15:52:26;21.90;;;14.47;;
11034;SDS011;5571;48.110;-1.706;2022-12-13T15:57:23;25.70;;;14.90;;
11034;SDS011;5571;48.110;-1.706;2022-12-13T16:00:00;21.17;;;13.40;;
11034;SDS011;5571;48.110;-1.706;2022-12-13T16:05:47;28.10;;;16.60;;
11034;SDS011;5571;48.110;-1.706;2022-12-13T16:08:25;27.03;;;15.03;;
11034;SDS011;5571;48.110;-1.706;2022-12-13T16:10:52;23.27;;;14.07;;
11034;SDS011;5571;48.110;-1.706;2022-12-13T16:13:37;25.97;;;15.30;;
11034;SDS011;5571;48.110;-1.706;2022-12-13T16:16:19;22.43;;;13.87;;
11034;SDS011;5571;48.110;-1.706;2022-12-13T16:18:55;29.03;;;13.80;;
11034;SDS011;5571;48.110;-1.706;2022-12-13T16:21:24;22.80;;;14.53;;
11034;SDS011;5571;48.110;-1.706;2022-12-13T16:23:51;25.33;;;14.57;;
11034;SDS011;5571;48.110;-1.706;2022-12-13T16:26:21;22.50;;;14.40;;
11034;SDS011;5571;48.110;-1.706;2022-12-13T16:28:49;28.23;;;15.73;;
11034;SDS011;5571;48.110;-1.706;2022-12-13T16:31:16;24.20;;;14.97;;
11034;SDS011;5571;48.110;-1.706;2022-12-13T16:33:47;26.37;;;15.30;;
11034;SDS011;5571;48.110;-1.706;2022-12-13T16:36:13;24.53;;;14.87;;
11034;SDS011;5571;48.110;-1.706;2022-12-13T16:38:38;24.60;;;14.83;;